createdAt,value
2023-02-15T03:59:21.830Z,0.00
2023-02-15T04:00:21.816Z,0.00
2023-02-15T04:01:21.778Z,0.00
2023-02-15T04:02:21.689Z,0.00
2023-02-15T04:03:21.730Z,0.00
2023-02-15T04:04:22.284Z,0.00
2023-02-15T04:05:21.665Z,0.00
2023-02-15T04:06:21.656Z,0.00
2023-02-15T04:07:21.643Z,0.00
2023-02-15T04:08:21.642Z,0.00
2023-02-15T04:09:21.657Z,0.00
2023-02-15T04:10:21.644Z,0.00
2023-02-15T04:11:21.620Z,0.00
2023-02-15T04:12:21.636Z,0.00
2023-02-15T04:13:21.634Z,0.00
2023-02-15T04:14:21.615Z,0.00
2023-02-15T04:15:21.619Z,0.00
2023-02-15T04:16:21.649Z,0.00
2023-02-15T04:17:21.589Z,0.00
2023-02-15T04:18:21.591Z,0.00
2023-02-15T04:19:21.602Z,0.00
2023-02-15T04:20:21.597Z,0.00
2023-02-15T04:21:21.567Z,0.00
2023-02-15T04:22:21.566Z,0.00
2023-02-15T04:23:21.568Z,0.00
2023-02-15T04:24:21.547Z,0.00
2023-02-15T04:25:22.461Z,0.00
2023-02-15T04:26:21.558Z,0.00
2023-02-15T04:27:21.544Z,0.00
2023-02-15T04:28:21.541Z,0.00
2023-02-15T04:29:21.530Z,0.00
2023-02-15T04:30:21.582Z,0.00
2023-02-15T04:31:21.617Z,0.00
2023-02-15T04:32:21.557Z,0.00
2023-02-15T04:33:21.670Z,0.00
2023-02-15T04:34:21.518Z,0.00
2023-02-15T04:35:21.509Z,0.00
2023-02-15T04:36:21.494Z,0.00
2023-02-15T04:37:21.500Z,0.00
2023-02-15T04:38:21.490Z,0.00
2023-02-15T04:39:21.483Z,0.00
2023-02-15T04:40:21.501Z,0.00
2023-02-15T04:41:21.480Z,0.00
2023-02-15T04:42:21.467Z,0.00
2023-02-15T04:43:21.467Z,0.00
2023-02-15T04:44:21.459Z,0.00
2023-02-15T04:45:21.466Z,0.00
2023-02-15T04:46:21.512Z,0.00
2023-02-15T04:47:21.469Z,0.00
2023-02-15T04:48:21.466Z,0.00
2023-02-15T04:49:21.483Z,0.00
2023-02-15T04:50:21.478Z,0.00
2023-02-15T04:51:21.440Z,0.00
2023-02-15T04:52:21.431Z,0.00
2023-02-15T04:53:21.418Z,0.00
2023-02-15T04:54:21.422Z,0.00
2023-02-15T04:55:21.436Z,0.00
2023-02-15T04:56:21.415Z,0.00
2023-02-15T04:57:21.405Z,0.00
2023-02-15T04:58:21.428Z,0.00
2023-02-15T04:59:21.406Z,0.00
2023-02-15T05:00:21.404Z,0.00
2023-02-15T05:01:21.419Z,0.00
2023-02-15T05:02:21.394Z,0.00
2023-02-15T05:03:21.409Z,0.00
2023-02-15T05:04:21.425Z,0.00
2023-02-15T05:05:21.392Z,0.00
2023-02-15T05:06:21.381Z,0.00
2023-02-15T05:07:21.495Z,0.00
2023-02-15T05:08:21.386Z,0.00
2023-02-15T05:09:21.362Z,0.00
2023-02-15T05:10:21.370Z,0.00
2023-02-15T05:11:21.346Z,0.00
2023-02-15T05:12:21.340Z,0.00
2023-02-15T05:13:21.350Z,0.00
2023-02-15T05:14:21.348Z,0.00
2023-02-15T05:15:21.340Z,0.00
2023-02-15T05:16:21.413Z,0.00
2023-02-15T05:17:21.325Z,0.00
2023-02-15T05:18:21.311Z,0.00
2023-02-15T05:19:21.326Z,0.00
2023-02-15T05:20:21.323Z,0.00
2023-02-15T05:21:21.321Z,0.00
2023-02-15T05:22:21.314Z,0.00
2023-02-15T05:23:21.301Z,0.00
2023-02-15T05:24:21.293Z,0.00
2023-02-15T05:25:21.300Z,0.00
2023-02-15T05:26:21.310Z,0.00
2023-02-15T05:27:21.303Z,0.00
2023-02-15T05:28:21.280Z,0.00
2023-02-15T05:29:21.280Z,0.00
2023-02-15T05:30:21.407Z,0.00
2023-02-15T05:31:21.526Z,0.00
2023-02-15T05:32:21.448Z,0.00
2023-02-15T05:33:21.271Z,0.00
2023-02-15T05:34:21.259Z,0.00
2023-02-15T05:35:21.272Z,0.00
2023-02-15T05:36:21.250Z,0.00
2023-02-15T05:37:21.245Z,0.00
2023-02-15T05:38:21.278Z,0.00
2023-02-15T05:39:21.247Z,0.00
2023-02-15T05:40:21.227Z,0.00
2023-02-15T05:41:21.224Z,0.00
2023-02-15T05:42:21.219Z,0.00
2023-02-15T05:43:21.226Z,0.00
2023-02-15T05:44:21.221Z,0.00
2023-02-15T05:45:21.211Z,0.00
2023-02-15T05:46:21.265Z,0.00
2023-02-15T05:47:21.202Z,0.00
2023-02-15T05:48:21.202Z,0.00
2023-02-15T05:49:21.185Z,0.00
2023-02-15T05:50:21.195Z,0.00
2023-02-15T05:51:21.209Z,0.00
2023-02-15T05:52:21.177Z,0.00
2023-02-15T05:53:21.184Z,0.00
2023-02-15T05:54:21.186Z,0.00
2023-02-15T05:55:21.171Z,0.00
2023-02-15T05:56:21.207Z,0.00
2023-02-15T05:57:21.171Z,0.00
2023-02-15T05:58:21.169Z,0.00
2023-02-15T05:59:21.150Z,0.00
2023-02-15T06:00:21.147Z,0.00
2023-02-15T06:01:21.153Z,0.00
2023-02-15T06:02:21.204Z,0.00
2023-02-15T06:03:21.162Z,0.00
2023-02-15T06:04:21.143Z,0.00
2023-02-15T06:05:21.129Z,0.00
2023-02-15T06:06:21.119Z,0.00
2023-02-15T06:07:21.228Z,0.00
2023-02-15T06:08:21.114Z,0.00
2023-02-15T06:09:21.119Z,0.00
2023-02-15T06:10:21.123Z,0.00
2023-02-15T06:11:21.104Z,0.00
2023-02-15T06:12:21.098Z,0.00
2023-02-15T06:13:21.120Z,4.00
2023-02-15T06:14:21.084Z,4.00
2023-02-15T06:15:21.081Z,0.00
2023-02-15T06:16:21.185Z,0.00
2023-02-15T06:17:21.087Z,4.00
2023-02-15T06:18:21.084Z,0.00
2023-02-15T06:19:21.065Z,4.00
2023-02-15T06:20:21.059Z,4.00
2023-02-15T06:21:21.056Z,4.00
2023-02-15T06:22:21.073Z,4.00
2023-02-15T06:23:21.070Z,4.00
2023-02-15T06:24:21.059Z,4.00
2023-02-15T06:25:21.037Z,12.00
2023-02-15T06:26:21.045Z,8.00
2023-02-15T06:27:21.061Z,12.00
2023-02-15T06:28:21.027Z,16.00
2023-02-15T06:29:21.033Z,20.00
2023-02-15T06:30:21.101Z,20.00
2023-02-15T06:31:21.192Z,20.00
2023-02-15T06:32:21.038Z,24.00
2023-02-15T06:33:21.045Z,28.00
2023-02-15T06:34:21.003Z,32.00
2023-02-15T06:35:21.001Z,36.00
2023-02-15T06:36:21.009Z,40.00
2023-02-15T06:37:20.992Z,44.00
2023-02-15T06:38:21.032Z,52.00
2023-02-15T06:39:21.065Z,60.00
2023-02-15T06:41:54.384Z,76.00
2023-02-15T06:42:54.348Z,80.00
2023-02-15T06:43:54.390Z,88.00
2023-02-15T06:44:54.337Z,96.00
2023-02-15T06:45:54.370Z,104.00
2023-02-15T06:46:54.430Z,112.00
2023-02-15T06:47:54.342Z,120.00
2023-02-15T06:48:54.373Z,128.00
2023-02-15T06:49:54.418Z,140.00
2023-02-15T06:50:54.329Z,148.00
2023-02-15T06:51:54.323Z,156.00
2023-02-15T06:52:54.333Z,168.00
2023-02-15T06:53:54.314Z,176.00
2023-02-15T06:54:54.321Z,188.00
2023-02-15T06:55:54.370Z,196.00
2023-02-15T06:56:54.295Z,208.00
2023-02-15T06:57:54.288Z,220.00
2023-02-15T06:58:54.314Z,232.00
2023-02-15T06:59:54.287Z,244.00
2023-02-15T07:00:54.283Z,252.00
2023-02-15T07:01:54.416Z,268.00
2023-02-15T07:02:55.732Z,276.00
2023-02-15T07:03:54.340Z,288.00
2023-02-15T07:04:54.374Z,300.00
2023-02-15T07:05:54.243Z,316.00
2023-02-15T07:06:54.332Z,324.00
2023-02-15T07:07:54.236Z,336.00
2023-02-15T07:10:54.243Z,372.00
2023-02-15T07:12:54.219Z,396.00
2023-02-15T07:13:54.262Z,408.00
2023-02-15T07:14:54.212Z,416.00
2023-02-15T07:15:54.241Z,432.00
2023-02-15T07:16:54.193Z,440.00
2023-02-15T07:17:54.190Z,456.00
2023-02-15T07:18:54.209Z,468.00
2023-02-15T07:19:54.191Z,476.00
2023-02-15T07:20:54.174Z,488.00
2023-02-15T07:21:54.170Z,500.00
2023-02-15T07:22:54.204Z,512.00
2023-02-15T07:23:54.178Z,520.00
2023-02-15T07:24:54.157Z,528.00
2023-02-15T07:25:54.149Z,540.00
2023-02-15T07:26:54.187Z,552.00
2023-02-15T07:27:54.141Z,564.00
2023-02-15T07:28:54.183Z,572.00
2023-02-15T07:29:54.155Z,584.00
2023-02-15T07:30:54.171Z,592.00
2023-02-15T07:31:54.252Z,600.00
2023-02-15T07:32:54.138Z,608.00
2023-02-15T07:33:54.144Z,616.00
2023-02-15T07:34:54.141Z,624.00
2023-02-15T07:35:54.119Z,632.00
2023-02-15T07:36:54.106Z,644.00
2023-02-15T07:37:54.105Z,656.00
2023-02-15T07:38:54.107Z,672.00
2023-02-15T07:39:54.107Z,688.00
2023-02-15T07:40:54.096Z,712.00
2023-02-15T07:41:54.092Z,736.00
2023-02-15T07:42:54.341Z,724.00
2023-02-15T07:43:54.096Z,700.00
2023-02-15T07:44:54.072Z,692.00
2023-02-15T07:45:54.067Z,676.00
2023-02-15T07:46:54.129Z,648.00
2023-02-15T07:47:54.081Z,628.00
2023-02-15T07:48:54.072Z,640.00
2023-02-15T07:49:54.077Z,656.00
2023-02-15T07:50:54.071Z,664.00
2023-02-15T07:51:54.065Z,688.00
2023-02-15T07:52:54.052Z,728.00
2023-02-15T07:53:54.044Z,760.00
2023-02-15T07:54:54.030Z,852.00
2023-02-15T07:55:54.032Z,924.00
2023-02-15T07:56:54.050Z,984.00
2023-02-15T07:57:54.032Z,964.00
2023-02-15T07:59:54.061Z,924.00
2023-02-15T08:00:54.018Z,1132.00
2023-02-15T08:01:54.019Z,1416.00
2023-02-15T08:02:54.073Z,1532.00
2023-02-15T08:03:54.059Z,1648.00
2023-02-15T08:04:54.012Z,1776.00
2023-02-15T08:05:53.985Z,1820.00
2023-02-15T08:06:54.015Z,1832.00
2023-02-15T08:07:54.006Z,1856.00
2023-02-15T08:08:54.050Z,1868.00
2023-02-15T08:09:53.969Z,1888.00
2023-02-15T08:10:53.969Z,1900.00
2023-02-15T08:11:53.973Z,1924.00
2023-02-15T08:12:53.961Z,1936.00
2023-02-15T08:13:53.992Z,1968.00
2023-02-15T08:14:53.962Z,1996.00
2023-02-15T08:15:53.998Z,2020.00
2023-02-15T08:16:54.154Z,2040.00
2023-02-15T08:17:53.959Z,2056.00
2023-02-15T08:18:53.951Z,2064.00
2023-02-15T08:19:53.961Z,2076.00
2023-02-15T08:20:53.950Z,2028.00
2023-02-15T08:21:53.974Z,2032.00
2023-02-15T08:22:53.982Z,2100.00
2023-02-15T08:23:53.924Z,2116.00
2023-02-15T08:24:53.989Z,2128.00
2023-02-15T08:25:54.698Z,2148.00
2023-02-15T08:26:54.886Z,2160.00
2023-02-15T08:27:53.929Z,2168.00
2023-02-15T08:28:53.953Z,2180.00
2023-02-15T08:29:56.758Z,2188.00
2023-02-15T08:30:54.901Z,2196.00
2023-02-15T08:31:54.152Z,2204.00
2023-02-15T08:34:26.529Z,2240.00
2023-02-15T08:35:26.619Z,2248.00
2023-02-15T08:37:59.661Z,2276.00
2023-02-15T08:40:32.221Z,2296.00
2023-02-15T08:41:32.242Z,2300.00
2023-02-15T08:42:32.196Z,2316.00
2023-02-15T08:43:32.200Z,2332.00
2023-02-15T08:44:32.244Z,2344.00
2023-02-15T08:45:32.269Z,2356.00
2023-02-15T08:46:32.200Z,2364.00
2023-02-15T08:48:32.164Z,2368.00
2023-02-15T08:49:32.268Z,2372.00
2023-02-15T08:50:32.226Z,2380.00
2023-02-15T08:51:32.302Z,2392.00
2023-02-15T08:52:32.197Z,2400.00
2023-02-15T08:53:32.393Z,2008.00
2023-02-15T08:54:32.152Z,2380.00
2023-02-15T08:55:32.163Z,2448.00
2023-02-15T08:56:32.181Z,2460.00
2023-02-15T08:57:32.210Z,2484.00
2023-02-15T08:58:32.128Z,2496.00
2023-02-15T08:59:32.280Z,2516.00
2023-02-15T09:00:32.359Z,2536.00
2023-02-15T09:01:32.827Z,2548.00
2023-02-15T09:02:32.212Z,2548.00
2023-02-15T09:03:32.144Z,2568.00
2023-02-15T09:04:32.150Z,2572.00
2023-02-15T09:05:32.149Z,2580.00
2023-02-15T09:06:32.143Z,2588.00
2023-02-15T09:07:32.136Z,2600.00
2023-02-15T09:08:32.102Z,2608.00
2023-02-15T09:09:32.104Z,2620.00
2023-02-15T09:10:32.123Z,2620.00
2023-02-15T09:11:32.095Z,2632.00
2023-02-15T09:12:32.105Z,2660.00
2023-02-15T09:13:32.091Z,2668.00
2023-02-15T09:14:32.138Z,2384.00
2023-02-15T09:15:32.097Z,1752.00
2023-02-15T09:16:32.271Z,1896.00
2023-02-15T09:17:32.098Z,2044.00
2023-02-15T09:18:32.075Z,2312.00
2023-02-15T09:19:32.113Z,2404.00
2023-02-15T09:20:32.081Z,2508.00
2023-02-15T09:21:32.089Z,2576.00
2023-02-15T09:22:32.070Z,2592.00
2023-02-15T09:23:32.079Z,2576.00
2023-02-15T09:24:32.089Z,2552.00
2023-02-15T09:25:32.110Z,2604.00
2023-02-15T09:26:32.076Z,2628.00
2023-02-15T09:27:32.062Z,2700.00
2023-02-15T09:28:32.063Z,2728.00
2023-02-15T09:30:32.217Z,2560.00
2023-02-15T09:31:32.259Z,2700.00
2023-02-15T09:32:32.038Z,2736.00
2023-02-15T09:33:32.039Z,2724.00
2023-02-15T09:34:34.114Z,2752.00
2023-02-15T09:35:32.052Z,2740.00
2023-02-15T09:36:32.043Z,2724.00
2023-02-15T09:37:32.065Z,2756.00
2023-02-15T09:38:32.042Z,2756.00
2023-02-15T09:39:32.049Z,2756.00
2023-02-15T09:42:32.022Z,2788.00
2023-02-15T09:43:32.017Z,2796.00
2023-02-15T09:44:32.031Z,2820.00
2023-02-15T09:45:32.016Z,2840.00
2023-02-15T09:46:32.048Z,2844.00
2023-02-15T09:47:32.816Z,2868.00
2023-02-15T09:48:32.025Z,2880.00
2023-02-15T09:49:32.032Z,2884.00
2023-02-15T09:50:32.025Z,2892.00
2023-02-15T09:51:32.045Z,2892.00
2023-02-15T09:53:32.024Z,2896.00
2023-02-15T09:54:32.030Z,2904.00
2023-02-15T09:55:32.016Z,2904.00
2023-02-15T09:56:32.020Z,2916.00
2023-02-15T09:57:32.001Z,2940.00
2023-02-15T09:58:32.015Z,2944.00
2023-02-15T09:59:32.173Z,2944.00
2023-02-15T10:00:32.211Z,2944.00
2023-02-15T10:01:32.083Z,2856.00
2023-02-15T10:02:31.989Z,2808.00
2023-02-15T10:13:39.718Z,3100.00
2023-02-15T10:14:39.671Z,3148.00
2023-02-15T10:15:39.651Z,3180.00
2023-02-15T10:16:39.697Z,3196.00
2023-02-15T10:17:39.650Z,3212.00
2023-02-15T10:18:39.631Z,3220.00
2023-02-15T10:19:39.640Z,3224.00
2023-02-15T10:20:39.682Z,3252.00
2023-02-15T10:21:39.677Z,3252.00
2023-02-15T10:22:39.630Z,3272.00
2023-02-15T10:23:39.651Z,3288.00
2023-02-15T10:24:41.593Z,3300.00
2023-02-15T10:25:39.892Z,3300.00
2023-02-15T10:26:39.727Z,3352.00
2023-02-15T10:27:39.803Z,3384.00
2023-02-15T10:28:39.640Z,3400.00
2023-02-15T10:29:39.765Z,3412.00
2023-02-15T10:30:39.877Z,3380.00
2023-02-15T10:31:40.875Z,3392.00
2023-02-15T10:32:39.933Z,3448.00
2023-02-15T10:33:39.621Z,3472.00
2023-02-15T10:34:39.645Z,3496.00
2023-02-15T10:35:39.643Z,3512.00
2023-02-15T10:36:40.480Z,3420.00
2023-02-15T10:37:40.524Z,3480.00
2023-02-15T10:38:39.639Z,3556.00
2023-02-15T10:39:39.642Z,3576.00
2023-02-15T10:40:39.701Z,3576.00
2023-02-15T10:41:40.766Z,3592.00
2023-02-15T10:42:39.607Z,3596.00
2023-02-15T10:43:41.788Z,3584.00
2023-02-15T10:44:39.735Z,3604.00
2023-02-15T10:45:39.763Z,3632.00
2023-02-15T10:46:39.755Z,3648.00
2023-02-15T10:47:39.609Z,3672.00
2023-02-15T10:48:39.608Z,3676.00
2023-02-15T10:49:39.608Z,3708.00
2023-02-15T10:50:39.621Z,3676.00
2023-02-15T10:51:39.629Z,3652.00
2023-02-15T10:52:39.622Z,3312.00
2023-02-15T10:55:39.613Z,3652.00
2023-02-15T10:57:39.605Z,3604.00
2023-02-15T10:58:39.626Z,3544.00
2023-02-15T11:00:39.647Z,3524.00
2023-02-15T11:01:39.785Z,3680.00
2023-02-15T11:02:39.612Z,3660.00
2023-02-15T11:03:39.612Z,3700.00
2023-02-15T11:04:39.697Z,3740.00
2023-02-15T11:05:39.706Z,3704.00
2023-02-15T11:06:39.609Z,3708.00
2023-02-15T11:07:39.629Z,3788.00
2023-02-15T11:08:40.918Z,3752.00
2023-02-15T11:09:39.622Z,3748.00
2023-02-15T11:10:39.624Z,3876.00
2023-02-15T11:11:39.616Z,3916.00
2023-02-15T11:12:39.617Z,3808.00
2023-02-15T11:13:39.618Z,3700.00
2023-02-15T11:14:39.616Z,3760.00
2023-02-15T11:15:39.645Z,3760.00
2023-02-15T11:16:39.631Z,3660.00
2023-02-15T11:17:39.636Z,3500.00
2023-02-15T11:18:39.622Z,3800.00
2023-02-15T11:19:39.623Z,4092.00
2023-02-15T11:20:39.648Z,4248.00
2023-02-15T11:23:39.630Z,4116.00
2023-02-15T11:24:39.622Z,4180.00
2023-02-15T11:25:39.687Z,4028.00
2023-02-15T11:26:39.643Z,4004.00
2023-02-15T11:27:39.688Z,4116.00
2023-02-15T11:28:39.629Z,4320.00
2023-02-15T11:29:39.636Z,4312.00
2023-02-15T11:30:39.707Z,3868.00
2023-02-15T11:31:39.855Z,4012.00
2023-02-15T11:32:39.648Z,4084.00
2023-02-15T11:33:39.643Z,4168.00
2023-02-15T11:34:39.659Z,4088.00
2023-02-15T11:35:39.631Z,4072.00
2023-02-15T11:36:39.630Z,4192.00
2023-02-15T11:37:39.643Z,4240.00
2023-02-15T11:38:39.627Z,4200.00
2023-02-15T11:39:39.631Z,4176.00
2023-02-15T11:40:39.629Z,4208.00
2023-02-15T11:41:39.652Z,4356.00
2023-02-15T11:42:39.640Z,4532.00
2023-02-15T11:43:39.652Z,4572.00
2023-02-15T11:44:39.663Z,4724.00
2023-02-15T11:45:39.661Z,5084.00
2023-02-15T11:46:39.718Z,5136.00
2023-02-15T11:47:39.676Z,5104.00
2023-02-15T11:48:39.672Z,4964.00
2023-02-15T11:49:39.671Z,4968.00
2023-02-15T11:50:39.641Z,5160.00
2023-02-15T11:51:39.659Z,5632.00
2023-02-15T11:52:39.662Z,6068.00
2023-02-15T11:54:39.648Z,5900.00
2023-02-15T11:55:39.656Z,5564.00
2023-02-15T11:56:39.657Z,5632.00
2023-02-15T11:57:39.764Z,5944.00
2023-02-15T11:58:39.658Z,5696.00
2023-02-15T11:59:39.647Z,5512.00
2023-02-15T12:00:39.673Z,5524.00
2023-02-15T12:01:39.659Z,5668.00
2023-02-15T12:02:39.807Z,5468.00
2023-02-15T12:03:39.690Z,5716.00
2023-02-15T12:04:39.672Z,6100.00
2023-02-15T12:05:39.664Z,5668.00
2023-02-15T12:06:39.657Z,5612.00
2023-02-15T12:07:39.666Z,5876.00
2023-02-15T12:08:39.828Z,6180.00
2023-02-15T12:09:39.673Z,5264.00
2023-02-15T12:10:39.668Z,6024.00
2023-02-15T12:11:39.658Z,5724.00
2023-02-15T12:12:39.668Z,5640.00
2023-02-15T12:13:39.669Z,6068.00
2023-02-15T12:14:39.707Z,6644.00
2023-02-15T12:15:39.709Z,6804.00
2023-02-15T12:16:39.665Z,7220.00
2023-02-15T12:17:39.667Z,7272.00
2023-02-15T12:18:39.726Z,7996.00
2023-02-15T12:19:39.683Z,8492.00
2023-02-15T12:20:39.701Z,8340.00
2023-02-15T12:21:39.693Z,8364.00
2023-02-15T12:22:39.689Z,8516.00
2023-02-15T12:23:39.860Z,8224.00
2023-02-15T12:24:39.690Z,8796.00
2023-02-15T12:28:12.777Z,9580.00
2023-02-15T12:29:12.735Z,9568.00
2023-02-15T12:30:12.750Z,9300.00
2023-02-15T12:31:12.781Z,9684.00
2023-02-15T12:32:12.808Z,9724.00
2023-02-15T12:33:12.748Z,8488.00
2023-02-15T12:34:13.555Z,8336.00
2023-02-15T12:35:12.748Z,8916.00
2023-02-15T12:36:12.749Z,8908.00
2023-02-15T12:37:12.808Z,8008.00
2023-02-15T12:38:12.782Z,7808.00
2023-02-15T12:39:12.795Z,8444.00
2023-02-15T12:40:12.767Z,8300.00
2023-02-15T12:41:12.763Z,7136.00
2023-02-15T12:42:12.755Z,7568.00
2023-02-15T12:43:12.760Z,7828.00
2023-02-15T12:44:14.809Z,7616.00
2023-02-15T12:45:19.418Z,8012.00
2023-02-15T12:46:12.787Z,8364.00
2023-02-15T12:47:12.787Z,8368.00
2023-02-15T12:48:12.817Z,9752.00
2023-02-15T12:49:12.797Z,9928.00
2023-02-15T12:50:12.770Z,10136.00
2023-02-15T12:51:12.779Z,11164.00
2023-02-15T12:52:12.787Z,11020.00
2023-02-15T12:53:12.821Z,11040.00
2023-02-15T12:54:12.801Z,11464.00
2023-02-15T12:55:12.792Z,11672.00
2023-02-15T12:56:12.816Z,12132.00
2023-02-15T12:57:12.791Z,12564.00
2023-02-15T12:58:12.790Z,12664.00
2023-02-15T12:59:12.805Z,13008.00
2023-02-15T13:00:12.804Z,12676.00
2023-02-15T13:01:12.927Z,13396.00
2023-02-15T13:02:12.900Z,14184.00
2023-02-15T13:03:12.806Z,30208.00
2023-02-15T13:04:12.844Z,40160.00
2023-02-15T13:05:12.818Z,30752.00
2023-02-15T13:06:12.880Z,28960.00
2023-02-15T13:07:12.820Z,24672.00
2023-02-15T13:08:12.829Z,20160.00
2023-02-15T13:09:12.901Z,24576.00
2023-02-15T13:10:12.868Z,24288.00
2023-02-15T13:11:12.892Z,21696.00
2023-02-15T13:12:12.851Z,16600.00
2023-02-15T13:13:12.845Z,14432.00
2023-02-15T13:14:12.872Z,14784.00
2023-02-15T13:15:12.866Z,18240.00
2023-02-15T13:16:12.980Z,23136.00
2023-02-15T13:17:12.872Z,21440.00
2023-02-15T13:18:12.861Z,27552.00
2023-02-15T13:19:12.903Z,28160.00
2023-02-15T13:20:12.875Z,30272.00
2023-02-15T13:21:12.864Z,29760.00
2023-02-15T13:22:12.861Z,30272.00
2023-02-15T13:23:12.866Z,28800.00
2023-02-15T13:24:12.988Z,30112.00
2023-02-15T13:25:12.900Z,28928.00
2023-02-15T13:26:12.879Z,29888.00
2023-02-15T13:27:15.829Z,27360.00
2023-02-15T13:28:12.908Z,30848.00
2023-02-15T13:29:13.572Z,29216.00
2023-02-15T13:30:12.987Z,28416.00
2023-02-15T13:31:13.017Z,28384.00
2023-02-15T13:32:13.009Z,29632.00
2023-02-15T13:33:12.890Z,30752.00
2023-02-15T13:34:12.899Z,32064.00
2023-02-15T13:35:12.907Z,30720.00
2023-02-15T13:36:12.948Z,27776.00
2023-02-15T13:37:12.909Z,28064.00
2023-02-15T13:38:12.916Z,29184.00
2023-02-15T13:39:12.913Z,32992.00
2023-02-15T13:40:13.004Z,33536.00
2023-02-15T13:41:12.929Z,31648.00
2023-02-15T13:42:12.946Z,30784.00
2023-02-15T13:43:12.941Z,31552.00
2023-02-15T13:44:12.960Z,33408.00
2023-02-15T13:45:12.963Z,33248.00
2023-02-15T13:46:12.991Z,34272.00
2023-02-15T13:47:12.979Z,34880.00
2023-02-15T13:48:12.946Z,35072.00
2023-02-15T13:49:12.943Z,34912.00
2023-02-15T13:50:12.962Z,34528.00
2023-02-15T13:51:12.949Z,34272.00
2023-02-15T13:52:12.964Z,35328.00
2023-02-15T13:53:12.975Z,36512.00
2023-02-15T13:54:13.022Z,36928.00
2023-02-15T13:55:12.970Z,37632.00
2023-02-15T13:56:12.972Z,36928.00
2023-02-15T13:57:13.047Z,35200.00
2023-02-15T13:58:12.989Z,35872.00
2023-02-15T13:59:13.012Z,34592.00
2023-02-15T14:00:13.011Z,35200.00
2023-02-15T14:01:13.160Z,35296.00
2023-02-15T14:02:12.995Z,36320.00
2023-02-15T14:03:12.994Z,36640.00
2023-02-15T14:04:13.058Z,37472.00
2023-02-15T14:05:13.049Z,37376.00
2023-02-15T14:06:13.003Z,35904.00
2023-02-15T14:07:13.016Z,33120.00
2023-02-15T14:08:13.027Z,35200.00
2023-02-15T14:09:13.019Z,32928.00
2023-02-15T14:10:13.031Z,33440.00
2023-02-15T14:11:13.039Z,34400.00
2023-02-15T14:12:13.029Z,33536.00
2023-02-15T14:13:13.060Z,33088.00
2023-02-15T14:14:13.067Z,32096.00
2023-02-15T14:15:13.065Z,31328.00
2023-02-15T14:16:13.085Z,32832.00
2023-02-15T14:17:13.062Z,31040.00
2023-02-15T14:18:13.063Z,29856.00
2023-02-15T14:19:13.048Z,29280.00
2023-02-15T14:20:13.046Z,29792.00
2023-02-15T14:21:13.054Z,30816.00
2023-02-15T14:22:13.602Z,29088.00
2023-02-15T14:23:13.061Z,28832.00
2023-02-15T14:24:13.061Z,28992.00
2023-02-15T14:25:13.063Z,29792.00
2023-02-15T14:26:13.099Z,29824.00
2023-02-15T14:27:13.073Z,30784.00
2023-02-15T14:28:13.074Z,30976.00
2023-02-15T14:29:13.095Z,30304.00
2023-02-15T14:30:13.194Z,29472.00
2023-02-15T14:31:13.219Z,27776.00
2023-02-15T14:32:13.273Z,26848.00
2023-02-15T14:33:13.110Z,28064.00
2023-02-15T14:34:13.119Z,30944.00
2023-02-15T14:35:13.097Z,30016.00
2023-02-15T14:36:13.099Z,29280.00
2023-02-15T14:37:13.121Z,28512.00
2023-02-15T14:38:13.117Z,27136.00
2023-02-15T14:39:13.109Z,23840.00
2023-02-15T14:40:13.120Z,25280.00
2023-02-15T14:41:13.122Z,23712.00
2023-02-15T14:42:13.177Z,21920.00
2023-02-15T14:43:13.120Z,20480.00
2023-02-15T14:44:13.147Z,20352.00
2023-02-15T14:45:13.147Z,21952.00
2023-02-15T14:46:13.220Z,22336.00
2023-02-15T14:47:13.187Z,21024.00
2023-02-15T14:48:13.172Z,22688.00
2023-02-15T14:49:13.166Z,19200.00
2023-02-15T14:50:13.173Z,20096.00
2023-02-15T14:51:13.155Z,22688.00
2023-02-15T14:52:13.161Z,21280.00
2023-02-15T14:53:13.192Z,20896.00
2023-02-15T14:54:13.164Z,18624.00
2023-02-15T14:55:13.177Z,16864.00
2023-02-15T14:56:13.169Z,16768.00
2023-02-15T14:57:13.220Z,14680.00
2023-02-15T14:58:13.201Z,13352.00
2023-02-15T14:59:13.174Z,11548.00
2023-02-15T15:00:13.184Z,10732.00
2023-02-15T15:01:13.247Z,10056.00
2023-02-15T15:02:13.193Z,10020.00
2023-02-15T15:03:13.197Z,9240.00
2023-02-15T15:04:13.211Z,8956.00
2023-02-15T15:05:13.190Z,8808.00
2023-02-15T15:06:13.221Z,8036.00
2023-02-15T15:07:13.190Z,6536.00
2023-02-15T15:08:13.207Z,5268.00
2023-02-15T15:09:13.224Z,4520.00
2023-02-15T15:10:13.218Z,4192.00
2023-02-15T15:11:13.209Z,4104.00
2023-02-15T15:12:13.218Z,4000.00
2023-02-15T15:13:13.202Z,3964.00
2023-02-15T15:14:13.229Z,3952.00
2023-02-15T15:15:13.209Z,3828.00
2023-02-15T15:16:13.275Z,3632.00
2023-02-15T15:17:13.216Z,3464.00
2023-02-15T15:18:13.214Z,3320.00
2023-02-15T15:19:13.210Z,3248.00
2023-02-15T15:20:13.247Z,3224.00
2023-02-15T15:21:13.220Z,3168.00
2023-02-15T15:22:13.224Z,3072.00
2023-02-15T15:23:13.214Z,2960.00
2023-02-15T15:25:13.230Z,2744.00
2023-02-15T15:26:13.204Z,2636.00
2023-02-15T15:27:13.214Z,2564.00
2023-02-15T15:28:13.217Z,2460.00
2023-02-15T15:29:13.234Z,2372.00
2023-02-15T15:30:13.264Z,2316.00
2023-02-15T15:31:13.341Z,2272.00
2023-02-15T15:32:13.476Z,2208.00
2023-02-15T15:33:13.269Z,2148.00
2023-02-15T15:34:13.220Z,2100.00
2023-02-15T15:35:13.200Z,2068.00
2023-02-15T15:36:13.209Z,2048.00
2023-02-15T15:37:13.213Z,2032.00
2023-02-15T15:38:13.329Z,2020.00
2023-02-15T15:39:13.217Z,1996.00
2023-02-15T15:40:13.209Z,1964.00
2023-02-15T15:41:13.221Z,1912.00
2023-02-15T15:42:13.215Z,1848.00
2023-02-15T15:43:13.281Z,1788.00
2023-02-15T15:44:13.198Z,1720.00
2023-02-15T15:45:13.188Z,1644.00
2023-02-15T15:46:13.256Z,1572.00
2023-02-15T15:47:13.188Z,1500.00
2023-02-15T15:48:13.190Z,1432.00
2023-02-15T15:49:13.237Z,1364.00
2023-02-15T15:50:13.199Z,1304.00
2023-02-15T15:51:13.207Z,1244.00
2023-02-15T15:52:13.208Z,1192.00
2023-02-15T15:53:13.176Z,1148.00
2023-02-15T15:54:13.307Z,1100.00
2023-02-15T15:56:46.236Z,1004.00
2023-02-15T15:57:46.235Z,968.00
2023-02-15T15:58:46.244Z,928.00
2023-02-15T15:59:46.230Z,892.00
2023-02-15T16:00:46.248Z,852.00
2023-02-15T16:12:49.951Z,432.00
2023-02-15T16:13:49.884Z,400.00
2023-02-15T16:14:49.877Z,368.00
2023-02-15T16:15:49.897Z,340.00
2023-02-15T16:16:49.882Z,316.00
2023-02-15T16:17:49.866Z,288.00
2023-02-15T16:18:49.856Z,260.00
2023-02-15T16:19:49.850Z,240.00
2023-02-15T16:20:49.849Z,220.00
2023-02-15T16:21:49.867Z,204.00
2023-02-15T16:22:49.864Z,188.00
2023-02-15T16:23:49.836Z,172.00
2023-02-15T16:24:49.856Z,156.00
2023-02-15T16:25:49.831Z,148.00
2023-02-15T16:26:49.859Z,136.00
2023-02-15T16:27:49.822Z,128.00
2023-02-15T16:28:49.843Z,116.00
2023-02-15T16:29:49.815Z,108.00
2023-02-15T16:30:49.893Z,96.00
2023-02-15T16:31:49.951Z,92.00
2023-02-15T16:32:49.849Z,84.00
2023-02-15T16:33:49.806Z,72.00
2023-02-15T16:34:49.796Z,68.00
2023-02-15T16:35:49.797Z,60.00
2023-02-15T16:36:49.807Z,56.00
2023-02-15T16:37:49.809Z,56.00
2023-02-15T16:38:49.786Z,52.00
2023-02-15T16:39:49.788Z,48.00
2023-02-15T16:40:51.114Z,44.00
2023-02-15T16:41:49.798Z,36.00
2023-02-15T16:42:49.792Z,36.00
2023-02-15T16:43:49.808Z,32.00
2023-02-15T16:44:49.797Z,28.00
2023-02-15T16:45:49.794Z,28.00
2023-02-15T16:46:49.790Z,24.00
2023-02-15T16:47:49.773Z,24.00
2023-02-15T16:48:49.776Z,20.00
2023-02-15T16:49:49.761Z,16.00
2023-02-15T16:50:49.744Z,16.00
2023-02-15T16:51:49.749Z,12.00
2023-02-15T16:52:49.752Z,12.00
2023-02-15T16:53:49.775Z,8.00
2023-02-15T16:54:49.745Z,8.00
2023-02-15T16:55:49.748Z,8.00
2023-02-15T16:56:49.729Z,4.00
2023-02-15T16:57:49.748Z,4.00
2023-02-15T16:58:49.743Z,4.00
2023-02-15T16:59:49.719Z,0.00
2023-02-15T17:00:49.831Z,4.00
2023-02-15T17:01:49.722Z,0.00
2023-02-15T17:02:56.490Z,4.00
2023-02-15T17:03:49.768Z,4.00
2023-02-15T17:04:49.724Z,4.00
2023-02-15T17:05:49.693Z,0.00
2023-02-15T17:06:49.693Z,0.00
2023-02-15T17:07:49.698Z,0.00
2023-02-15T17:08:49.706Z,0.00